createdAt,value
2018-06-09T00:00:08.567Z,26.48
2018-06-09T00:01:29.569Z,26.53
2018-06-09T00:02:08.559Z,26.49
2018-06-09T00:03:08.557Z,26.55
2018-06-09T00:04:08.552Z,26.55
2018-06-09T00:05:08.551Z,26.52
2018-06-09T00:06:08.547Z,26.59
2018-06-09T00:07:29.547Z,26.52
2018-06-09T00:08:08.543Z,26.53
2018-06-09T00:09:08.531Z,26.52
2018-06-09T00:10:08.527Z,26.61
2018-06-09T00:11:08.523Z,26.55
2018-06-09T00:12:08.518Z,26.52
2018-06-09T00:13:29.519Z,26.53
2018-06-09T00:14:08.514Z,26.55
2018-06-09T00:15:08.512Z,26.55
2018-06-09T00:16:08.502Z,26.52
2018-06-09T00:17:08.498Z,26.60
2018-06-09T00:18:08.497Z,26.51
2018-06-09T00:19:29.499Z,26.53
2018-06-09T00:20:08.516Z,26.52
2018-06-09T00:21:08.517Z,26.55
2018-06-09T00:22:08.478Z,26.60
2018-06-09T00:23:08.475Z,26.60
2018-06-09T00:24:08.473Z,26.53
2018-06-09T00:25:29.475Z,26.63
2018-06-09T00:26:08.464Z,26.64
2018-06-09T00:27:08.461Z,26.59
2018-06-09T00:28:08.454Z,26.60
2018-06-09T00:29:08.452Z,26.53
2018-06-09T00:30:08.450Z,26.64
2018-06-09T00:31:29.453Z,26.63
2018-06-09T00:32:08.443Z,26.67
2018-06-09T00:33:08.438Z,26.52
2018-06-09T00:34:08.436Z,26.63
2018-06-09T00:35:08.428Z,26.59
2018-06-09T00:36:08.427Z,26.59
2018-06-09T00:37:29.438Z,26.61
2018-06-09T00:38:08.416Z,26.67
2018-06-09T00:39:08.412Z,26.59
2018-06-09T00:40:08.409Z,26.67
2018-06-09T00:41:08.412Z,26.66
2018-06-09T00:42:08.401Z,26.64
2018-06-09T00:43:29.404Z,26.67
2018-06-09T00:44:08.395Z,26.66
2018-06-09T00:45:08.389Z,26.68
2018-06-09T00:46:08.388Z,26.59
2018-06-09T00:47:08.380Z,26.66
2018-06-09T00:48:08.379Z,26.68
2018-06-09T00:49:29.380Z,26.70
2018-06-09T00:50:08.378Z,26.63
2018-06-09T00:51:08.371Z,26.68
2018-06-09T00:52:08.364Z,26.67
2018-06-09T00:53:08.359Z,26.70
2018-06-09T00:54:08.356Z,26.61
2018-06-09T00:55:29.361Z,26.67
2018-06-09T00:56:08.349Z,26.66
2018-06-09T00:57:08.344Z,26.64
2018-06-09T00:58:08.345Z,26.70
2018-06-09T00:59:08.340Z,26.66
2018-06-09T01:00:08.333Z,26.70
2018-06-09T01:01:29.337Z,26.70
2018-06-09T01:02:08.325Z,26.70
2018-06-09T01:03:08.322Z,26.66
2018-06-09T01:04:08.348Z,26.67
2018-06-09T01:05:08.313Z,26.64
2018-06-09T01:06:08.311Z,26.70
2018-06-09T01:07:29.314Z,26.73
2018-06-09T01:08:08.301Z,26.64
2018-06-09T01:09:08.296Z,26.64
2018-06-09T01:10:08.296Z,26.67
2018-06-09T01:11:08.297Z,26.70
2018-06-09T01:12:08.290Z,26.68
2018-06-09T01:13:29.291Z,26.70
2018-06-09T01:14:08.282Z,26.67
2018-06-09T01:15:08.276Z,26.64
2018-06-09T01:16:08.269Z,26.64
2018-06-09T01:17:08.269Z,26.66
2018-06-09T01:18:08.263Z,26.68
2018-06-09T01:19:29.270Z,26.68
2018-06-09T01:20:08.256Z,26.68
2018-06-09T01:21:08.257Z,26.67
2018-06-09T01:22:08.246Z,26.66
2018-06-09T01:23:08.245Z,26.66
2018-06-09T01:24:08.240Z,26.63
2018-06-09T01:25:29.244Z,26.73
2018-06-09T01:26:08.235Z,26.70
2018-06-09T01:27:08.230Z,26.56
2018-06-09T01:28:08.227Z,26.66
2018-06-09T01:29:08.225Z,26.63
2018-06-09T01:30:08.219Z,26.67
2018-06-09T01:31:29.223Z,26.68
2018-06-09T01:32:08.217Z,26.68
2018-06-09T01:33:08.207Z,26.59
2018-06-09T01:34:08.201Z,26.64
2018-06-09T01:35:08.200Z,26.70
2018-06-09T01:36:08.194Z,26.68
2018-06-09T01:37:29.198Z,26.66
2018-06-09T01:38:08.187Z,26.68
2018-06-09T01:39:08.183Z,26.63
2018-06-09T01:40:08.184Z,26.66
2018-06-09T01:41:08.175Z,26.68
2018-06-09T01:42:08.172Z,26.56
2018-06-09T01:43:29.178Z,26.55
2018-06-09T01:44:08.166Z,26.55
2018-06-09T01:45:08.160Z,26.68
2018-06-09T01:46:08.154Z,26.68
2018-06-09T01:47:08.151Z,26.59
2018-06-09T01:48:08.150Z,26.66
2018-06-09T01:49:29.154Z,26.66
2018-06-09T01:50:08.144Z,26.64
2018-06-09T01:51:08.136Z,26.67
2018-06-09T01:52:08.131Z,26.63
2018-06-09T01:53:08.133Z,26.63
2018-06-09T01:54:08.126Z,26.63
2018-06-09T01:55:29.139Z,26.63
2018-06-09T01:56:08.117Z,26.55
2018-06-09T01:57:08.113Z,26.66
2018-06-09T01:58:08.110Z,26.61
2018-06-09T01:59:08.105Z,26.60
2018-06-09T02:00:08.105Z,26.55
2018-06-09T02:01:29.108Z,26.60
2018-06-09T02:02:08.097Z,26.59
2018-06-09T02:03:08.094Z,26.61
2018-06-09T02:04:08.089Z,26.66
2018-06-09T02:05:08.084Z,26.60
2018-06-09T02:06:08.112Z,26.61
2018-06-09T02:07:29.088Z,26.60
2018-06-09T02:08:08.112Z,26.61
2018-06-09T02:09:08.065Z,26.63
2018-06-09T02:10:08.067Z,26.61
2018-06-09T02:11:08.060Z,26.60
2018-06-09T02:12:08.090Z,26.64
2018-06-09T02:13:29.060Z,26.59
2018-06-09T02:14:08.062Z,26.61
2018-06-09T02:15:08.048Z,26.61
2018-06-09T02:16:08.040Z,26.63
2018-06-09T02:17:08.052Z,26.61
2018-06-09T02:18:08.033Z,26.59
2018-06-09T02:19:29.059Z,26.59
2018-06-09T02:20:08.027Z,26.63
2018-06-09T02:21:08.022Z,26.60
2018-06-09T02:22:08.019Z,26.63
2018-06-09T02:23:08.017Z,26.60
2018-06-09T02:24:08.013Z,26.60
2018-06-09T02:25:29.015Z,26.59
2018-06-09T02:26:08.009Z,26.61
2018-06-09T02:27:08.000Z,26.56
2018-06-09T02:28:07.998Z,26.61
2018-06-09T02:29:07.992Z,26.55
2018-06-09T02:30:07.988Z,26.52
2018-06-09T02:31:28.995Z,26.63
2018-06-09T02:32:07.983Z,26.49
2018-06-09T02:33:07.978Z,26.59
2018-06-09T02:34:07.978Z,26.56
2018-06-09T02:35:07.970Z,26.55
2018-06-09T02:36:07.971Z,26.55
2018-06-09T02:37:28.971Z,26.56
2018-06-09T02:38:07.957Z,26.59
2018-06-09T02:39:07.962Z,26.53
2018-06-09T02:40:07.953Z,26.53
2018-06-09T02:41:07.949Z,26.59
2018-06-09T02:42:07.942Z,26.55
2018-06-09T02:43:28.946Z,26.51
2018-06-09T02:44:07.946Z,26.52
2018-06-09T02:45:07.934Z,26.53
2018-06-09T02:46:07.940Z,26.52
2018-06-09T02:47:07.925Z,26.53
2018-06-09T02:48:07.923Z,26.49
2018-06-09T02:49:28.923Z,26.55
2018-06-09T02:50:07.912Z,26.48
2018-06-09T02:51:07.912Z,26.49
2018-06-09T02:52:07.905Z,26.46
2018-06-09T02:53:07.902Z,26.49
2018-06-09T02:54:07.906Z,26.49
2018-06-09T02:55:28.901Z,26.49
2018-06-09T02:56:07.894Z,26.51
2018-06-09T02:57:07.886Z,26.51
2018-06-09T02:58:07.886Z,26.48
2018-06-09T02:59:07.879Z,26.48
2018-06-09T03:00:07.874Z,26.44
2018-06-09T03:01:28.880Z,26.44
2018-06-09T03:02:07.865Z,26.46
2018-06-09T03:03:07.868Z,26.44
2018-06-09T03:04:07.862Z,26.48
2018-06-09T03:05:07.856Z,26.48
2018-06-09T03:06:07.853Z,26.45
2018-06-09T03:07:28.856Z,26.45
2018-06-09T03:08:07.850Z,26.44
2018-06-09T03:09:07.841Z,26.46
2018-06-09T03:10:07.839Z,26.44
2018-06-09T03:11:07.833Z,26.46
2018-06-09T03:12:07.832Z,26.49
2018-06-09T03:13:28.835Z,26.48
2018-06-09T03:14:07.823Z,26.48
2018-06-09T03:15:07.819Z,26.46
2018-06-09T03:16:07.819Z,26.46
2018-06-09T03:17:07.811Z,26.48
2018-06-09T03:18:07.809Z,26.46
2018-06-09T03:19:28.815Z,26.46
2018-06-09T03:20:07.803Z,26.45
2018-06-09T03:21:07.793Z,26.45
2018-06-09T03:22:07.794Z,26.42
2018-06-09T03:23:07.791Z,26.49
2018-06-09T03:24:07.786Z,26.45
2018-06-09T03:25:28.787Z,26.39
2018-06-09T03:26:07.778Z,26.42
2018-06-09T03:27:07.781Z,26.46
2018-06-09T03:28:07.771Z,26.41
2018-06-09T03:29:07.764Z,26.44
2018-06-09T03:30:07.763Z,26.41
2018-06-09T03:31:28.770Z,26.48
2018-06-09T03:32:07.760Z,26.42
2018-06-09T03:33:07.750Z,26.36
2018-06-09T03:34:07.750Z,26.45
2018-06-09T03:35:07.747Z,26.44
2018-06-09T03:36:07.739Z,26.46
2018-06-09T03:37:28.741Z,26.48
2018-06-09T03:38:07.733Z,26.48
2018-06-09T03:39:07.731Z,26.39
2018-06-09T03:40:07.724Z,26.41
2018-06-09T03:41:07.721Z,26.45
2018-06-09T03:42:07.720Z,26.45
2018-06-09T03:43:28.777Z,26.45
2018-06-09T03:44:07.711Z,26.46
2018-06-09T03:45:07.706Z,26.44
2018-06-09T03:46:07.702Z,26.37
2018-06-09T03:47:07.718Z,26.37
2018-06-09T03:48:07.697Z,26.41
2018-06-09T03:49:28.696Z,26.48
2018-06-09T03:50:07.689Z,26.44
2018-06-09T03:51:07.682Z,26.45
2018-06-09T03:52:07.677Z,26.37
2018-06-09T03:53:07.712Z,26.45
2018-06-09T03:54:07.672Z,26.37
2018-06-09T03:55:28.676Z,26.44
2018-06-09T03:56:07.664Z,26.44
2018-06-09T03:57:07.663Z,26.41
2018-06-09T03:58:07.682Z,26.44
2018-06-09T03:59:07.677Z,26.37
2018-06-09T04:00:07.653Z,26.44
2018-06-09T04:01:28.652Z,26.37
2018-06-09T04:02:07.644Z,26.48
2018-06-09T04:03:07.639Z,26.41
2018-06-09T04:04:07.634Z,26.41
2018-06-09T04:05:07.630Z,26.42
2018-06-09T04:06:07.625Z,26.45
2018-06-09T04:07:28.626Z,26.42
2018-06-09T04:08:07.619Z,26.42
2018-06-09T04:09:07.614Z,26.42
2018-06-09T04:10:07.612Z,26.44
2018-06-09T04:11:07.615Z,26.37
2018-06-09T04:12:07.607Z,26.41
2018-06-09T04:13:28.605Z,26.41
2018-06-09T04:14:07.594Z,26.37
2018-06-09T04:15:07.592Z,26.42
2018-06-09T04:16:07.588Z,26.44
2018-06-09T04:17:07.584Z,26.46
2018-06-09T04:18:07.580Z,26.41
2018-06-09T04:19:28.586Z,26.44
2018-06-09T04:20:07.575Z,26.45
2018-06-09T04:21:07.567Z,26.41
2018-06-09T04:22:07.563Z,26.44
2018-06-09T04:23:07.560Z,26.46
2018-06-09T04:24:07.558Z,26.39
2018-06-09T04:25:28.559Z,26.44
2018-06-09T04:26:07.554Z,26.41
2018-06-09T04:27:07.557Z,26.49
2018-06-09T04:28:07.550Z,26.41
2018-06-09T04:29:07.537Z,26.42
2018-06-09T04:30:07.537Z,26.48
2018-06-09T04:31:28.541Z,26.42
2018-06-09T04:32:07.528Z,26.48
2018-06-09T04:33:07.521Z,26.46
2018-06-09T04:34:07.519Z,26.48
2018-06-09T04:35:07.519Z,26.44
2018-06-09T04:36:07.516Z,26.49
2018-06-09T04:37:28.516Z,26.51
2018-06-09T04:38:07.505Z,26.49
2018-06-09T04:39:07.510Z,26.52
2018-06-09T04:40:07.499Z,26.48
2018-06-09T04:41:07.492Z,26.52
2018-06-09T04:42:07.488Z,26.49
2018-06-09T04:43:28.492Z,26.49
2018-06-09T04:44:07.482Z,26.49
2018-06-09T04:45:07.480Z,26.51
2018-06-09T04:46:07.516Z,26.52
2018-06-09T04:47:07.473Z,26.49
2018-06-09T04:48:07.487Z,26.52
2018-06-09T04:49:28.469Z,26.45
2018-06-09T04:50:07.456Z,26.49
2018-06-09T04:51:07.453Z,26.52
2018-06-09T04:52:07.459Z,26.49
2018-06-09T04:53:07.447Z,26.53
2018-06-09T04:54:07.442Z,26.49
2018-06-09T04:55:28.447Z,26.52
2018-06-09T04:56:07.439Z,26.52
2018-06-09T04:57:07.437Z,26.48
2018-06-09T04:58:07.432Z,26.52
2018-06-09T04:59:07.422Z,26.51
2018-06-09T05:00:07.421Z,26.48
2018-06-09T05:01:28.422Z,26.48
2018-06-09T05:02:07.412Z,26.49
2018-06-09T05:03:07.409Z,26.48
2018-06-09T05:04:07.405Z,26.55
2018-06-09T05:05:07.400Z,26.49
2018-06-09T05:06:07.399Z,26.53
2018-06-09T05:07:28.403Z,26.49
2018-06-09T05:08:07.393Z,26.55
2018-06-09T05:09:07.387Z,26.52
2018-06-09T05:10:07.384Z,26.52
2018-06-09T05:11:07.378Z,26.52
2018-06-09T05:12:07.375Z,26.53
2018-06-09T05:13:28.376Z,26.48
2018-06-09T05:14:07.370Z,26.48
2018-06-09T05:15:07.366Z,26.51
2018-06-09T05:16:07.361Z,26.48
2018-06-09T05:17:07.360Z,26.48
2018-06-09T05:18:07.351Z,26.48
2018-06-09T05:19:28.360Z,26.51
2018-06-09T05:20:07.348Z,26.49
2018-06-09T05:21:07.339Z,26.48
2018-06-09T05:22:07.338Z,26.48
2018-06-09T05:23:07.335Z,26.55
2018-06-09T05:24:07.331Z,26.49
2018-06-09T05:25:28.334Z,26.52
2018-06-09T05:26:07.320Z,26.55
2018-06-09T05:27:07.320Z,26.55
2018-06-09T05:28:07.354Z,26.52
2018-06-09T05:29:07.309Z,26.49
2018-06-09T05:30:07.309Z,26.51
2018-06-09T05:31:28.314Z,26.51
2018-06-09T05:32:07.304Z,26.52
2018-06-09T05:33:07.295Z,26.52
2018-06-09T05:34:07.293Z,26.52
2018-06-09T05:35:07.287Z,26.55
2018-06-09T05:36:07.288Z,26.53
2018-06-09T05:37:28.289Z,26.55
2018-06-09T05:38:07.328Z,26.61
2018-06-09T05:39:07.273Z,26.61
2018-06-09T05:40:07.267Z,26.61
2018-06-09T05:41:07.264Z,26.63
2018-06-09T05:42:07.260Z,26.55
2018-06-09T05:43:28.266Z,26.53
2018-06-09T05:44:07.266Z,26.56
2018-06-09T05:45:07.249Z,26.63
2018-06-09T05:46:07.250Z,26.64
2018-06-09T05:47:07.243Z,26.51
2018-06-09T05:48:07.239Z,26.66
2018-06-09T05:49:28.293Z,26.56
2018-06-09T05:50:07.230Z,26.61
2018-06-09T05:51:07.228Z,26.56
2018-06-09T05:52:07.225Z,26.60
2018-06-09T05:53:07.219Z,26.64
2018-06-09T05:54:07.217Z,26.59
2018-06-09T05:55:28.224Z,26.59
2018-06-09T05:56:07.210Z,26.61
2018-06-09T05:57:07.205Z,26.61
2018-06-09T05:58:07.199Z,26.64
2018-06-09T05:59:07.197Z,26.67
2018-06-09T06:00:07.195Z,26.66
2018-06-09T06:01:28.201Z,26.59
2018-06-09T06:02:07.189Z,26.76
2018-06-09T06:03:07.219Z,26.81
2018-06-09T06:04:07.181Z,26.78
2018-06-09T06:05:07.174Z,26.83
2018-06-09T06:06:07.169Z,26.76
2018-06-09T06:07:28.175Z,26.81
2018-06-09T06:08:07.163Z,26.76
2018-06-09T06:09:07.160Z,26.81
2018-06-09T06:10:07.156Z,26.82
2018-06-09T06:11:07.149Z,26.86
2018-06-09T06:12:07.149Z,26.86
2018-06-09T06:13:28.151Z,26.88
2018-06-09T06:14:07.147Z,26.83
2018-06-09T06:15:07.136Z,26.83
2018-06-09T06:16:07.136Z,26.85
2018-06-09T06:17:07.128Z,26.96
2018-06-09T06:18:07.124Z,26.81
2018-06-09T06:19:28.130Z,26.92
2018-06-09T06:20:07.117Z,26.89
2018-06-09T06:21:07.114Z,26.86
2018-06-09T06:22:07.114Z,26.96
2018-06-09T06:23:07.108Z,26.88
2018-06-09T06:24:07.104Z,26.98
2018-06-09T06:25:28.113Z,26.93
2018-06-09T06:26:07.095Z,27.01
2018-06-09T06:27:07.093Z,26.96
2018-06-09T06:28:07.089Z,26.98
2018-06-09T06:29:07.084Z,27.00
2018-06-09T06:30:07.078Z,26.97
2018-06-09T06:31:28.084Z,26.96
2018-06-09T06:32:07.073Z,26.98
2018-06-09T06:33:07.072Z,26.93
2018-06-09T06:34:07.067Z,26.93
2018-06-09T06:35:07.062Z,26.86
2018-06-09T06:36:07.068Z,26.93
2018-06-09T06:37:28.060Z,26.98
2018-06-09T06:38:07.051Z,26.93
2018-06-09T06:39:07.048Z,27.03
2018-06-09T06:40:07.045Z,27.08
2018-06-09T06:41:07.040Z,27.01
2018-06-09T06:42:07.036Z,27.01
2018-06-09T06:43:28.049Z,27.10
2018-06-09T06:44:07.031Z,27.07
2018-06-09T06:45:07.026Z,27.13
2018-06-09T06:46:07.023Z,27.13
2018-06-09T06:47:07.017Z,27.07
2018-06-09T06:48:07.016Z,27.18
2018-06-09T06:49:28.020Z,27.15
2018-06-09T06:50:07.006Z,27.22
2018-06-09T06:51:07.002Z,27.23
2018-06-09T06:52:07.000Z,27.20
2018-06-09T06:53:06.997Z,27.28
2018-06-09T06:54:06.996Z,27.16
2018-06-09T06:55:28.001Z,27.18
2018-06-09T06:56:06.983Z,27.28
2018-06-09T06:57:06.981Z,27.19
2018-06-09T06:58:06.978Z,27.26
2018-06-09T06:59:06.975Z,27.30
2018-06-09T07:00:06.973Z,27.16
2018-06-09T07:01:27.974Z,27.18
2018-06-09T07:02:07.027Z,27.22
2018-06-09T07:03:06.962Z,27.23
2018-06-09T07:04:06.957Z,27.23
2018-06-09T07:05:06.953Z,27.22
2018-06-09T07:06:06.949Z,27.23
2018-06-09T07:07:27.956Z,27.22
2018-06-09T07:08:06.942Z,27.20
2018-06-09T07:09:06.939Z,27.23
2018-06-09T07:10:06.933Z,27.25
2018-06-09T07:11:06.932Z,27.26
2018-06-09T07:12:06.930Z,27.23
2018-06-09T07:13:27.997Z,27.25
2018-06-09T07:14:06.921Z,27.25
2018-06-09T07:15:06.916Z,27.28
2018-06-09T07:16:06.914Z,27.29
2018-06-09T07:17:06.909Z,27.33
2018-06-09T07:18:06.912Z,27.33
2018-06-09T07:19:27.913Z,27.37
2018-06-09T07:20:06.903Z,27.38
2018-06-09T07:21:06.902Z,27.41
2018-06-09T07:22:06.921Z,27.38
2018-06-09T07:23:06.891Z,27.38
2018-06-09T07:24:06.886Z,27.38
2018-06-09T07:25:27.888Z,27.37
2018-06-09T07:26:06.878Z,27.38
2018-06-09T07:27:06.876Z,27.40
2018-06-09T07:28:06.907Z,27.44
2018-06-09T07:29:06.898Z,27.50
2018-06-09T07:30:06.895Z,27.48
2018-06-09T07:31:27.869Z,27.52
2018-06-09T07:32:06.856Z,27.44
2018-06-09T07:33:06.856Z,27.50
2018-06-09T07:34:06.852Z,27.61
2018-06-09T07:35:06.886Z,27.57
2018-06-09T07:36:06.845Z,27.52
2018-06-09T07:37:27.849Z,27.67
2018-06-09T07:38:06.838Z,27.71
2018-06-09T07:39:06.831Z,27.67
2018-06-09T07:40:06.831Z,27.75
2018-06-09T07:41:06.826Z,27.68
2018-06-09T07:42:06.824Z,27.66
2018-06-09T07:43:27.830Z,27.67
2018-06-09T07:44:06.820Z,27.72
2018-06-09T07:45:06.817Z,27.72
2018-06-09T07:46:06.814Z,27.73
2018-06-09T07:47:06.806Z,27.76
2018-06-09T07:48:06.804Z,27.73
2018-06-09T07:49:27.805Z,27.82
2018-06-09T07:50:06.796Z,27.81
2018-06-09T07:51:06.793Z,27.78
2018-06-09T07:52:06.789Z,27.76
2018-06-09T07:53:06.797Z,27.82
2018-06-09T07:54:06.799Z,27.83
2018-06-09T07:55:27.787Z,27.83
2018-06-09T07:56:06.775Z,27.78
2018-06-09T07:57:06.773Z,27.86
2018-06-09T07:58:06.811Z,27.83
2018-06-09T07:59:06.765Z,27.88
2018-06-09T08:00:06.762Z,27.86
2018-06-09T08:01:27.766Z,27.78
2018-06-09T08:02:06.755Z,27.76
2018-06-09T08:03:06.753Z,27.81
2018-06-09T08:04:06.748Z,27.79
2018-06-09T08:05:06.748Z,27.76
2018-06-09T08:06:06.749Z,27.82
2018-06-09T08:07:27.752Z,27.82
2018-06-09T08:08:06.735Z,27.78
2018-06-09T08:09:06.734Z,27.82
2018-06-09T08:10:06.728Z,27.78
2018-06-09T08:11:06.725Z,27.75
2018-06-09T08:12:06.721Z,27.79
2018-06-09T08:13:27.729Z,27.75
2018-06-09T08:14:06.715Z,27.78
2018-06-09T08:15:06.716Z,27.76
2018-06-09T08:16:06.717Z,27.88
2018-06-09T08:17:06.703Z,27.82
2018-06-09T08:18:06.712Z,27.88
2018-06-09T08:19:27.756Z,27.90
2018-06-09T08:20:06.703Z,27.90
2018-06-09T08:21:06.690Z,27.88
2018-06-09T08:22:06.698Z,27.86
2018-06-09T08:23:06.683Z,27.90
2018-06-09T08:24:06.681Z,27.94
2018-06-09T08:25:27.691Z,27.93
2018-06-09T08:26:06.682Z,27.90
2018-06-09T08:27:06.674Z,27.91
2018-06-09T08:28:06.674Z,27.95
2018-06-09T08:29:06.675Z,28.00
2018-06-09T08:30:06.663Z,28.00
2018-06-09T08:31:27.668Z,28.01
2018-06-09T08:32:06.657Z,28.01
2018-06-09T08:33:06.653Z,28.04
2018-06-09T08:34:06.652Z,28.13
2018-06-09T08:35:06.646Z,28.13
2018-06-09T08:36:06.737Z,28.22
2018-06-09T08:37:27.649Z,28.37
2018-06-09T08:38:06.640Z,28.49
2018-06-09T08:39:06.633Z,28.60
2018-06-09T08:40:06.631Z,28.71
2018-06-09T08:41:06.626Z,28.83
2018-06-09T08:42:06.702Z,28.94
2018-06-09T08:43:27.626Z,29.09
2018-06-09T08:44:06.618Z,29.10
2018-06-09T08:45:06.614Z,29.20
2018-06-09T08:46:06.615Z,29.10
2018-06-09T08:47:06.616Z,29.25
2018-06-09T08:48:06.604Z,29.12
2018-06-09T08:49:27.618Z,29.21
2018-06-09T08:50:06.599Z,29.27
2018-06-09T08:51:06.589Z,29.32
2018-06-09T08:52:06.591Z,29.32
2018-06-09T08:53:06.584Z,29.32
2018-06-09T08:54:06.580Z,29.24
2018-06-09T08:55:27.585Z,29.40
2018-06-09T08:56:06.574Z,29.32
2018-06-09T08:57:06.572Z,29.46
2018-06-09T08:58:06.564Z,29.40
2018-06-09T08:59:06.561Z,29.42
2018-06-09T09:00:06.557Z,29.47
2018-06-09T09:01:27.560Z,29.47
2018-06-09T09:02:06.556Z,29.52
2018-06-09T09:03:06.575Z,29.47
2018-06-09T09:04:06.542Z,29.55
2018-06-09T09:05:06.542Z,29.61
2018-06-09T09:06:06.538Z,29.58
2018-06-09T09:07:27.542Z,29.67
2018-06-09T09:08:06.531Z,29.73
2018-06-09T09:09:06.645Z,29.67
2018-06-09T09:10:06.524Z,29.77
2018-06-09T09:11:06.517Z,29.67
2018-06-09T09:12:06.516Z,29.76
2018-06-09T09:13:27.521Z,29.76
2018-06-09T09:14:06.508Z,29.79
2018-06-09T09:15:06.503Z,29.79
2018-06-09T09:16:06.508Z,29.80
2018-06-09T09:17:06.498Z,29.94
2018-06-09T09:18:06.497Z,29.80
2018-06-09T09:19:27.503Z,29.81
2018-06-09T09:20:06.486Z,29.83
2018-06-09T09:21:06.483Z,29.84
2018-06-09T09:22:06.480Z,29.83
2018-06-09T09:23:06.478Z,29.86
2018-06-09T09:24:06.474Z,29.92
2018-06-09T09:25:27.475Z,29.96
2018-06-09T09:26:06.466Z,29.89
2018-06-09T09:27:06.461Z,29.94
2018-06-09T09:28:06.458Z,29.87
2018-06-09T09:29:06.454Z,29.90
2018-06-09T09:30:06.467Z,30.02
2018-06-09T09:31:27.505Z,30.02
2018-06-09T09:32:06.500Z,29.95
2018-06-09T09:33:06.440Z,29.98
2018-06-09T09:34:06.473Z,30.03
2018-06-09T09:35:06.432Z,29.99
2018-06-09T09:36:06.437Z,30.06
2018-06-09T09:37:27.435Z,30.05
2018-06-09T09:38:06.420Z,30.05
2018-06-09T09:39:06.420Z,30.02
2018-06-09T09:40:06.417Z,30.05
2018-06-09T09:41:06.426Z,30.01
2018-06-09T09:42:06.409Z,30.10
2018-06-09T09:43:27.414Z,30.10
2018-06-09T09:44:06.405Z,30.13
2018-06-09T09:45:06.403Z,30.10
2018-06-09T09:46:06.420Z,30.16
2018-06-09T09:47:06.390Z,30.14
2018-06-09T09:48:06.389Z,30.13
2018-06-09T09:49:27.391Z,30.14
2018-06-09T09:50:06.383Z,30.11
2018-06-09T09:51:06.380Z,30.18
2018-06-09T09:52:06.375Z,30.11
2018-06-09T09:53:06.373Z,30.06
2018-06-09T09:54:06.368Z,30.16
2018-06-09T09:55:27.373Z,30.13
2018-06-09T09:56:06.361Z,30.17
2018-06-09T09:57:06.482Z,30.26
2018-06-09T09:58:06.354Z,30.29
2018-06-09T09:59:06.351Z,30.29
2018-06-09T10:00:06.349Z,30.27
2018-06-09T10:01:27.349Z,30.26
2018-06-09T10:02:06.338Z,30.27
2018-06-09T10:03:06.336Z,30.24
2018-06-09T10:04:06.336Z,30.26
2018-06-09T10:05:06.332Z,30.31
2018-06-09T10:06:06.326Z,30.32
2018-06-09T10:07:27.333Z,30.31
2018-06-09T10:08:06.322Z,30.27
2018-06-09T10:09:06.317Z,30.32
2018-06-09T10:10:06.311Z,30.38
2018-06-09T10:11:06.311Z,30.36
2018-06-09T10:12:06.308Z,30.33
2018-06-09T10:13:27.311Z,30.38
2018-06-09T10:14:06.299Z,30.38
2018-06-09T10:15:06.298Z,30.32
2018-06-09T10:16:06.296Z,30.38
2018-06-09T10:17:06.320Z,30.40
2018-06-09T10:18:06.288Z,30.40
2018-06-09T10:19:27.293Z,30.35
2018-06-09T10:20:06.280Z,30.44
2018-06-09T10:21:06.280Z,30.38
2018-06-09T10:22:06.275Z,30.38
2018-06-09T10:23:06.269Z,30.39
2018-06-09T10:24:06.269Z,30.51
2018-06-09T10:25:27.272Z,30.43
2018-06-09T10:26:06.263Z,30.40
2018-06-09T10:27:06.259Z,30.54
2018-06-09T10:28:06.255Z,30.51
2018-06-09T10:29:06.248Z,30.46
2018-06-09T10:30:06.247Z,30.38
2018-06-09T10:31:27.252Z,30.51
2018-06-09T10:32:06.244Z,30.51
2018-06-09T10:33:06.239Z,30.49
2018-06-09T10:34:06.240Z,30.54
2018-06-09T10:35:06.231Z,30.56
2018-06-09T10:36:06.230Z,30.52
2018-06-09T10:37:27.235Z,30.51
2018-06-09T10:38:06.226Z,30.49
2018-06-09T10:39:06.221Z,30.52
2018-06-09T10:40:06.220Z,30.61
2018-06-09T10:41:06.215Z,30.54
2018-06-09T10:42:06.210Z,30.59
2018-06-09T10:43:27.221Z,30.59
2018-06-09T10:44:06.207Z,30.58
2018-06-09T10:45:06.202Z,30.56
2018-06-09T10:46:06.205Z,30.55
2018-06-09T10:47:06.192Z,30.61
2018-06-09T10:48:06.193Z,30.56
2018-06-09T10:49:27.197Z,30.56
2018-06-09T10:50:06.191Z,30.55
2018-06-09T10:51:06.185Z,30.61
2018-06-09T10:52:06.177Z,30.55
2018-06-09T10:53:06.173Z,30.59
2018-06-09T10:54:06.176Z,30.59
2018-06-09T10:55:27.178Z,30.59
2018-06-09T10:56:06.173Z,30.62
2018-06-09T10:57:06.164Z,30.56
2018-06-09T10:58:06.165Z,30.58
2018-06-09T10:59:06.158Z,30.61
2018-06-09T11:00:06.161Z,30.61
2018-06-09T11:01:27.164Z,30.59
2018-06-09T11:02:06.159Z,30.59
2018-06-09T11:03:06.148Z,30.59
2018-06-09T11:04:06.143Z,30.65
2018-06-09T11:05:06.137Z,30.62
2018-06-09T11:06:06.138Z,30.61
2018-06-09T11:07:27.142Z,30.63
2018-06-09T11:08:06.153Z,30.62
2018-06-09T11:09:06.125Z,30.62
2018-06-09T11:10:06.176Z,30.63
2018-06-09T11:11:06.130Z,30.67
2018-06-09T11:12:06.114Z,30.71
2018-06-09T11:13:27.118Z,30.65
2018-06-09T11:14:06.120Z,30.67
2018-06-09T11:15:06.110Z,30.67
2018-06-09T11:16:06.103Z,30.69
2018-06-09T11:17:06.099Z,30.69
2018-06-09T11:18:06.101Z,30.69
2018-06-09T11:19:27.176Z,30.73
2018-06-09T11:20:06.091Z,30.67
2018-06-09T11:21:06.087Z,30.71
2018-06-09T11:22:06.085Z,30.67
2018-06-09T11:23:06.084Z,30.69
2018-06-09T11:24:06.079Z,30.65
2018-06-09T11:25:27.081Z,30.70
2018-06-09T11:26:06.072Z,30.70
2018-06-09T11:27:06.069Z,30.67
2018-06-09T11:28:06.069Z,30.65
2018-06-09T11:29:06.061Z,30.62
2018-06-09T11:30:06.060Z,30.71
2018-06-09T11:31:27.070Z,30.71
2018-06-09T11:32:06.055Z,30.67
2018-06-09T11:33:06.052Z,30.65
2018-06-09T11:34:06.051Z,30.77
2018-06-09T11:35:06.046Z,30.65
2018-06-09T11:36:06.044Z,30.69
2018-06-09T11:37:27.044Z,30.63
2018-06-09T11:38:06.035Z,30.65
2018-06-09T11:39:06.047Z,30.62
2018-06-09T11:40:06.087Z,30.65
2018-06-09T11:41:06.039Z,30.70
2018-06-09T11:42:06.027Z,30.69
2018-06-09T11:43:27.026Z,30.70
2018-06-09T11:44:06.029Z,30.71
2018-06-09T11:45:06.133Z,30.71
2018-06-09T11:46:06.010Z,30.65
2018-06-09T11:47:06.022Z,30.67
2018-06-09T11:48:06.006Z,30.70
2018-06-09T11:49:27.008Z,30.61
2018-06-09T11:50:06.011Z,30.67
2018-06-09T11:51:06.022Z,30.69
2018-06-09T11:52:05.992Z,30.74
2018-06-09T11:53:05.989Z,30.71
2018-06-09T11:54:05.989Z,30.70
2018-06-09T11:55:26.991Z,30.67
2018-06-09T11:56:05.983Z,30.70
2018-06-09T11:57:05.976Z,30.67
2018-06-09T11:58:06.059Z,30.70
2018-06-09T11:59:05.970Z,30.69
2018-06-09T12:00:05.967Z,30.69
2018-06-09T12:01:27.024Z,30.65
2018-06-09T12:02:05.966Z,30.63
2018-06-09T12:03:05.957Z,30.63
2018-06-09T12:04:06.242Z,30.67
2018-06-09T12:05:05.951Z,30.62
2018-06-09T12:06:05.947Z,30.70
2018-06-09T12:07:26.956Z,30.61
2018-06-09T12:08:05.944Z,30.62
2018-06-09T12:09:05.943Z,30.65
2018-06-09T12:10:05.935Z,30.63
2018-06-09T12:11:05.950Z,30.63
2018-06-09T12:12:05.933Z,30.59
2018-06-09T12:13:26.931Z,30.67
2018-06-09T12:14:05.930Z,30.67
2018-06-09T12:15:05.919Z,30.56
2018-06-09T12:16:05.921Z,30.61
2018-06-09T12:17:05.915Z,30.63
2018-06-09T12:18:05.916Z,30.65
2018-06-09T12:19:26.916Z,30.61
2018-06-09T12:20:05.909Z,30.62
2018-06-09T12:21:05.901Z,30.61
2018-06-09T12:22:05.901Z,30.62
2018-06-09T12:23:05.899Z,30.59
2018-06-09T12:24:05.895Z,30.55
2018-06-09T12:25:26.897Z,30.62
2018-06-09T12:26:05.888Z,30.61
2018-06-09T12:27:05.889Z,30.52
2018-06-09T12:28:05.896Z,30.61
2018-06-09T12:29:05.877Z,30.63
2018-06-09T12:30:05.877Z,30.54
2018-06-09T12:31:26.884Z,30.62
2018-06-09T12:32:05.873Z,30.56
2018-06-09T12:33:05.937Z,30.55
2018-06-09T12:34:05.863Z,30.56
2018-06-09T12:35:05.862Z,30.56
2018-06-09T12:36:05.857Z,30.51
2018-06-09T12:37:26.861Z,30.54
2018-06-09T12:38:05.851Z,30.59
2018-06-09T12:39:05.846Z,30.61
2018-06-09T12:40:05.847Z,30.59
2018-06-09T12:41:05.840Z,30.56
2018-06-09T12:42:05.970Z,30.52
2018-06-09T12:43:26.842Z,30.55
2018-06-09T12:44:05.833Z,30.54
2018-06-09T12:45:05.829Z,30.59
2018-06-09T12:46:05.977Z,30.55
2018-06-09T12:47:05.822Z,30.52
2018-06-09T12:48:05.817Z,30.51
2018-06-09T12:49:26.823Z,30.49
2018-06-09T12:50:05.816Z,30.49
2018-06-09T12:51:05.837Z,30.46
2018-06-09T12:52:05.808Z,30.56